Time;durP1;ratioP1;P1;durP2;ratioP2;P2;SDS_P1;SDS_P2;PMS_P1;PMS_P2;Temp;Humidity;BMP_temperature;BMP_pressure;BME280_temperature;BME280_humidity;BME280_pressure;Samples;Min_cycle;Max_cycle;Signal;HPM_P1;HPM_P2
2022/12/30 00:02:21;;;;;;;7.07;5.38;;;;;;;;;;4986345;28;20041;-82
2022/12/30 00:04:48;;;;;;;7.43;4.97;;;;;;;;;;5009663;28;20101;-82
2022/12/30 00:07:16;;;;;;;7.38;5.10;;;;;;;;;;4999305;28;20124;-82
2022/12/30 00:09:43;;;;;;;7.93;5.00;;;;;;;;;;5006264;28;20074;-82
2022/12/30 00:34:40;;;;;;;5.40;4.35;;;;;;;;;;5009547;28;20069;-82
2022/12/30 00:37:07;;;;;;;6.78;4.63;;;;;;;;;;5001157;28;20046;-82
2022/12/30 00:39:35;;;;;;;9.38;5.63;;;;;;;;;;5000783;28;20045;-81
2022/12/30 00:44:48;;;;;;;6.15;4.93;;;;;;;;;;5003745;28;20045;-82
2022/12/30 00:47:15;;;;;;;6.13;4.82;;;;;;;;;;5009180;28;20046;-82
2022/12/30 00:58:01;;;;;;;7.50;5.30;;;;;;;;;;5004396;28;20073;-81
2022/12/30 01:00:28;;;;;;;6.30;4.35;;;;;;;;;;5011822;28;20390;-81
2022/12/30 01:02:56;;;;;;;5.43;4.80;;;;;;;;;;5004194;28;20096;-81
2022/12/30 01:05:23;;;;;;;7.75;5.03;;;;;;;;;;5010249;28;20056;-81
2022/12/30 01:07:51;;;;;;;5.43;4.75;;;;;;;;;;4984729;28;20398;-81
2022/12/30 01:10:19;;;;;;;6.80;5.00;;;;;;;;;;5004204;28;20061;-81
2022/12/30 01:12:46;;;;;;;5.35;4.85;;;;;;;;;;4984482;28;20042;-81
2022/12/30 01:15:13;;;;;;;5.57;4.88;;;;;;;;;;4992577;28;20494;-81
2022/12/30 01:17:41;;;;;;;7.60;4.80;;;;;;;;;;4996415;28;20100;-81
2022/12/30 01:20:08;;;;;;;8.68;5.07;;;;;;;;;;4992839;28;20088;-81
2022/12/30 01:22:36;;;;;;;5.68;4.72;;;;;;;;;;5009028;28;20049;-82
2022/12/30 01:25:03;;;;;;;6.38;4.78;;;;;;;;;;5014416;28;20582;-82
2022/12/30 01:27:32;;;;;;;5.25;4.28;;;;;;;;;;5013832;28;20060;-81
2022/12/30 01:30:00;;;;;;;6.40;5.00;;;;;;;;;;5004644;28;20061;-82
2022/12/30 01:32:28;;;;;;;7.35;5.32;;;;;;;;;;5007288;28;20046;-82
2022/12/30 01:34:56;;;;;;;5.97;5.35;;;;;;;;;;5007463;28;20058;-82
2022/12/30 01:37:24;;;;;;;7.18;5.43;;;;;;;;;;5000413;28;20428;-81
2022/12/30 01:39:52;;;;;;;5.70;4.70;;;;;;;;;;5006862;28;20132;-82
2022/12/30 01:42:26;;;;;;;6.03;5.05;;;;;;;;;;5008641;28;20549;-82
2022/12/30 01:44:56;;;;;;;6.60;4.75;;;;;;;;;;4988609;28;20050;-82
2022/12/30 01:47:40;;;;;;;5.57;4.25;;;;;;;;;;4994938;28;20046;-81
2022/12/30 01:50:10;;;;;;;5.57;4.55;;;;;;;;;;4998907;28;20041;-81
2022/12/30 01:52:39;;;;;;;7.60;4.47;;;;;;;;;;5011124;28;20045;-82
2022/12/30 01:55:10;;;;;;;6.75;4.60;;;;;;;;;;5005340;28;20049;-82
2022/12/30 01:57:39;;;;;;;7.57;5.43;;;;;;;;;;4990076;28;20042;-82
2022/12/30 02:00:07;;;;;;;8.05;5.53;;;;;;;;;;5008984;28;20042;-82
2022/12/30 02:02:39;;;;;;;5.00;4.28;;;;;;;;;;5008308;28;20121;-82
2022/12/30 02:05:07;;;;;;;10.82;5.90;;;;;;;;;;5000821;28;20081;-81
2022/12/30 02:07:38;;;;;;;7.85;5.28;;;;;;;;;;5012603;28;20058;-82
2022/12/30 02:10:07;;;;;;;8.07;5.38;;;;;;;;;;4982060;28;20487;-82
2022/12/30 02:12:34;;;;;;;5.85;4.75;;;;;;;;;;4985071;28;20050;-82
2022/12/30 02:15:03;;;;;;;6.13;4.72;;;;;;;;;;5009978;28;20101;-82
2022/12/30 02:17:49;;;;;;;5.63;4.70;;;;;;;;;;5007781;28;20141;-82
2022/12/30 02:20:17;;;;;;;6.75;5.20;;;;;;;;;;5019247;28;20050;-82
2022/12/30 02:22:52;;;;;;;6.05;4.75;;;;;;;;;;5013907;28;20053;-82
2022/12/30 02:25:28;;;;;;;9.32;4.97;;;;;;;;;;5005494;28;20426;-82
2022/12/30 02:28:15;;;;;;;5.47;4.68;;;;;;;;;;4998188;28;20136;-81
2022/12/30 02:30:51;;;;;;;5.82;4.47;;;;;;;;;;4996324;28;20053;-81
2022/12/30 02:33:32;;;;;;;6.65;5.13;;;;;;;;;;5004754;28;20129;-81
2022/12/30 02:36:12;;;;;;;5.55;4.60;;;;;;;;;;5010144;28;20136;-81
2022/12/30 02:38:45;;;;;;;6.43;4.70;;;;;;;;;;4998505;28;20046;-82
2022/12/30 02:47:14;;;;;;;6.53;4.75;;;;;;;;;;4974175;28;20058;-81
2022/12/30 02:49:43;;;;;;;7.32;5.10;;;;;;;;;;4989404;28;20409;-81
2022/12/30 02:52:14;;;;;;;5.32;4.60;;;;;;;;;;4997853;28;20055;-81
2022/12/30 02:54:46;;;;;;;7.30;4.50;;;;;;;;;;5004738;28;20134;-81
2022/12/30 02:57:22;;;;;;;5.03;4.40;;;;;;;;;;5002447;28;20049;-81
2022/12/30 03:05:59;;;;;;;7.32;5.25;;;;;;;;;;5007046;28;20501;-81
2022/12/30 03:08:33;;;;;;;5.97;4.93;;;;;;;;;;5005595;28;20056;-81
2022/12/30 03:11:16;;;;;;;6.63;4.38;;;;;;;;;;5002995;28;20073;-81
2022/12/30 03:13:59;;;;;;;6.03;4.85;;;;;;;;;;5004200;28;20049;-81
2022/12/30 03:16:32;;;;;;;5.63;4.63;;;;;;;;;;5004543;28;20126;-81
2022/12/30 03:19:04;;;;;;;8.25;4.72;;;;;;;;;;5003369;28;20052;-82
2022/12/30 03:21:32;;;;;;;;;;;;;;;;;;4978626;28;20129;-81
2022/12/30 03:27:05;;;;;;;5.25;4.57;;;;;;;;;;5008127;28;20100;-81
2022/12/30 03:29:44;;;;;;;5.18;4.65;;;;;;;;;;5005097;28;20065;-81
2022/12/30 03:32:12;;;;;;;5.13;4.63;;;;;;;;;;5006426;28;20050;-81
2022/12/30 03:34:40;;;;;;;6.65;4.60;;;;;;;;;;5006765;28;20132;-82
2022/12/30 03:37:16;;;;;;;11.02;5.63;;;;;;;;;;4999817;28;20069;-81
2022/12/30 03:39:59;;;;;;;9.02;5.20;;;;;;;;;;5000613;28;20073;-81
2022/12/30 03:42:27;;;;;;;7.63;5.07;;;;;;;;;;4999942;28;20123;-83
2022/12/30 03:44:55;;;;;;;5.05;4.32;;;;;;;;;;4994568;28;20108;-82
2022/12/30 03:47:22;;;;;;;5.80;4.65;;;;;;;;;;5006126;28;20124;-81
2022/12/30 03:49:50;;;;;;;8.05;4.95;;;;;;;;;;4987328;28;20042;-82
2022/12/30 03:52:21;;;;;;;7.38;4.95;;;;;;;;;;5009444;28;20664;-82
2022/12/30 03:54:49;;;;;;;5.80;4.80;;;;;;;;;;5006223;28;20104;-83
2022/12/30 03:57:17;;;;;;;11.02;5.55;;;;;;;;;;5019888;28;20042;-82
2022/12/30 03:59:45;;;;;;;7.95;6.57;;;;;;;;;;5004931;28;20045;-82
2022/12/30 04:02:12;;;;;;;6.85;5.63;;;;;;;;;;5005273;28;20056;-81
2022/12/30 04:04:40;;;;;;;6.00;5.38;;;;;;;;;;5056467;22;20053;-82
2022/12/30 04:07:07;;;;;;;7.60;4.97;;;;;;;;;;5051772;28;20052;-82
2022/12/30 04:09:34;;;;;;;6.47;5.57;;;;;;;;;;5039475;28;20136;-82
2022/12/30 04:12:02;;;;;;;5.30;4.72;;;;;;;;;;5051019;28;20406;-82
2022/12/30 04:14:29;;;;;;;5.90;5.30;;;;;;;;;;5051970;28;20053;-82
2022/12/30 04:16:56;;;;;;;6.88;5.60;;;;;;;;;;5040525;28;20042;-82
2022/12/30 04:19:24;;;;;;;7.10;5.38;;;;;;;;;;5052522;28;20073;-82
2022/12/30 04:21:51;;;;;;;5.68;4.63;;;;;;;;;;5052066;28;20064;-83
2022/12/30 04:24:19;;;;;;;7.85;5.30;;;;;;;;;;5055856;28;20091;-82
2022/12/30 04:26:46;;;;;;;5.80;5.20;;;;;;;;;;5047180;28;20045;-82
2022/12/30 04:29:14;;;;;;;8.02;5.45;;;;;;;;;;5051868;28;20048;-82
2022/12/30 04:31:41;;;;;;;7.65;5.07;;;;;;;;;;5048899;28;20050;-82
2022/12/30 04:34:09;;;;;;;9.38;6.30;;;;;;;;;;5054037;28;20052;-82
2022/12/30 04:36:36;;;;;;;5.60;4.75;;;;;;;;;;5043016;28;20050;-82
2022/12/30 04:39:04;;;;;;;7.50;5.18;;;;;;;;;;5038775;28;20076;-81
2022/12/30 04:41:33;;;;;;;8.23;4.82;;;;;;;;;;5053939;28;20395;-83
2022/12/30 04:44:04;;;;;;;8.10;5.80;;;;;;;;;;5051209;28;20033;-79
2022/12/30 04:46:31;;;;;;;5.60;4.80;;;;;;;;;;5068831;28;20057;-80
2022/12/30 04:48:59;;;;;;;6.60;4.90;;;;;;;;;;5061062;28;20338;-81
2022/12/30 04:51:26;;;;;;;7.28;5.43;;;;;;;;;;5060630;28;20073;-81
2022/12/30 04:53:54;;;;;;;8.07;5.50;;;;;;;;;;5048948;28;20514;-82
2022/12/30 04:56:21;;;;;;;5.47;4.88;;;;;;;;;;5055926;28;20072;-81
2022/12/30 04:58:53;;;;;;;7.45;5.70;;;;;;;;;;5045612;28;20083;-83
2022/12/30 05:01:20;;;;;;;7.07;5.05;;;;;;;;;;5046882;28;20052;-82
2022/12/30 05:03:48;;;;;;;5.90;4.78;;;;;;;;;;5049236;28;20041;-82
2022/12/30 05:06:15;;;;;;;7.35;4.97;;;;;;;;;;5045781;28;20522;-83
2022/12/30 05:08:43;;;;;;;5.65;4.78;;;;;;;;;;5044693;28;20049;-82
2022/12/30 05:11:10;;;;;;;6.05;4.95;;;;;;;;;;5042244;28;20096;-81
2022/12/30 05:13:37;;;;;;;7.03;5.03;;;;;;;;;;5048676;28;20048;-82
2022/12/30 05:16:12;;;;;;;6.05;5.00;;;;;;;;;;5041031;28;20107;-82
2022/12/30 05:18:39;;;;;;;6.18;5.07;;;;;;;;;;5038032;28;20041;-82
2022/12/30 05:21:07;;;;;;;5.38;4.88;;;;;;;;;;5039652;28;20075;-82
2022/12/30 05:26:20;;;;;;;5.85;4.90;;;;;;;;;;5038722;28;20506;-82
2022/12/30 05:28:48;;;;;;;8.15;4.72;;;;;;;;;;5037956;28;20070;-81
2022/12/30 05:31:16;;;;;;;6.45;5.05;;;;;;;;;;5047449;28;20576;-82
2022/12/30 05:33:44;;;;;;;5.72;4.80;;;;;;;;;;5041774;28;20060;-80
2022/12/30 05:36:12;;;;;;;6.63;4.68;;;;;;;;;;5050008;28;20075;-82
2022/12/30 05:38:40;;;;;;;5.32;4.80;;;;;;;;;;5033839;28;20084;-81
2022/12/30 05:41:08;;;;;;;5.60;4.30;;;;;;;;;;5047847;28;20510;-83
2022/12/30 05:43:45;;;;;;;6.55;4.68;;;;;;;;;;5039693;28;20589;-83
2022/12/30 05:46:12;;;;;;;8.05;5.15;;;;;;;;;;5040183;28;20123;-82
2022/12/30 05:48:40;;;;;;;5.78;4.88;;;;;;;;;;5046190;28;20041;-82
2022/12/30 05:51:07;;;;;;;8.35;5.53;;;;;;;;;;5039364;28;20072;-82
2022/12/30 05:53:35;;;;;;;6.65;4.70;;;;;;;;;;5052092;28;20053;-82
2022/12/30 05:56:03;;;;;;;6.70;4.90;;;;;;;;;;5052232;28;20041;-81
2022/12/30 05:58:30;;;;;;;8.73;5.55;;;;;;;;;;5048782;28;20064;-80
2022/12/30 06:00:57;;;;;;;7.60;5.68;;;;;;;;;;5040298;28;20053;-81
2022/12/30 06:03:25;;;;;;;7.45;6.03;;;;;;;;;;5037993;28;20141;-80
2022/12/30 06:06:00;;;;;;;10.55;6.13;;;;;;;;;;5052027;28;20041;-81
2022/12/30 06:08:27;;;;;;;7.40;6.10;;;;;;;;;;5058315;28;20053;-82
2022/12/30 06:10:55;;;;;;;10.95;7.47;;;;;;;;;;5066107;28;20061;-80
2022/12/30 06:13:22;;;;;;;9.23;5.75;;;;;;;;;;5062017;28;20112;-80
2022/12/30 06:15:49;;;;;;;9.27;6.57;;;;;;;;;;5072260;28;20033;-82
2022/12/30 06:18:17;;;;;;;8.45;5.97;;;;;;;;;;5059780;28;20042;-83
2022/12/30 06:20:45;;;;;;;8.52;6.25;;;;;;;;;;5048720;28;20049;-81
2022/12/30 06:23:12;;;;;;;10.60;6.15;;;;;;;;;;5041266;28;20053;-81
2022/12/30 06:25:39;;;;;;;9.02;6.63;;;;;;;;;;5054079;28;20079;-82
2022/12/30 06:28:07;;;;;;;7.50;5.97;;;;;;;;;;5036100;28;20093;-80
2022/12/30 06:30:34;;;;;;;8.82;6.10;;;;;;;;;;5053964;28;20052;-81
2022/12/30 06:33:01;;;;;;;8.70;6.53;;;;;;;;;;5042268;28;20045;-82
2022/12/30 06:35:29;;;;;;;9.20;6.78;;;;;;;;;;5043207;28;20045;-82
2022/12/30 06:37:56;;;;;;;7.85;6.18;;;;;;;;;;5051319;28;20060;-82
2022/12/30 06:40:23;;;;;;;8.02;7.03;;;;;;;;;;5043917;28;20058;-83
2022/12/30 06:42:50;;;;;;;8.90;6.80;;;;;;;;;;5041579;28;20083;-82
2022/12/30 06:45:18;;;;;;;9.73;7.68;;;;;;;;;;5048655;28;20056;-82
2022/12/30 06:47:45;;;;;;;8.90;7.13;;;;;;;;;;5036422;28;20040;-82
2022/12/30 06:50:12;;;;;;;10.68;8.68;;;;;;;;;;5021031;28;20064;-81
2022/12/30 06:52:40;;;;;;;12.40;7.80;;;;;;;;;;5046900;28;20060;-82
2022/12/30 06:55:07;;;;;;;8.30;5.57;;;;;;;;;;5041148;28;20056;-82
2022/12/30 06:57:34;;;;;;;10.27;7.30;;;;;;;;;;5045303;28;20051;-81
2022/12/30 07:00:02;;;;;;;8.73;6.43;;;;;;;;;;5044160;28;20095;-82
2022/12/30 07:02:30;;;;;;;10.23;7.72;;;;;;;;;;5041318;28;20040;-82
2022/12/30 07:04:57;;;;;;;11.20;6.60;;;;;;;;;;5050498;28;20082;-82
2022/12/30 07:07:25;;;;;;;13.15;7.60;;;;;;;;;;5040816;28;20053;-81
2022/12/30 07:09:52;;;;;;;10.00;8.25;;;;;;;;;;5040849;28;20552;-82
2022/12/30 07:12:19;;;;;;;14.57;11.02;;;;;;;;;;5048559;28;20056;-82
2022/12/30 07:14:47;;;;;;;13.10;9.25;;;;;;;;;;5051767;28;20057;-83
2022/12/30 07:17:14;;;;;;;13.95;9.13;;;;;;;;;;5026026;28;20048;-81
2022/12/30 07:19:42;;;;;;;13.32;7.63;;;;;;;;;;5046291;28;20044;-82
2022/12/30 07:22:10;;;;;;;9.55;6.78;;;;;;;;;;5043656;28;20120;-82
2022/12/30 07:24:37;;;;;;;8.45;6.03;;;;;;;;;;5031418;28;20246;-82
2022/12/30 07:27:04;;;;;;;7.25;6.18;;;;;;;;;;5037091;28;20416;-82
2022/12/30 07:29:32;;;;;;;7.55;6.15;;;;;;;;;;5046694;28;20453;-82
2022/12/30 07:31:59;;;;;;;7.28;5.63;;;;;;;;;;5046258;28;20163;-82
2022/12/30 07:34:26;;;;;;;9.45;5.72;;;;;;;;;;5038291;28;20045;-81
2022/12/30 07:36:53;;;;;;;9.00;6.80;;;;;;;;;;5044375;28;20045;-82
2022/12/30 07:39:21;;;;;;;8.90;6.35;;;;;;;;;;5046361;28;20057;-82
2022/12/30 07:41:48;;;;;;;10.68;6.65;;;;;;;;;;5038895;28;20236;-82
2022/12/30 07:44:15;;;;;;;12.10;7.30;;;;;;;;;;5024244;28;20045;-82
2022/12/30 07:46:43;;;;;;;11.13;6.40;;;;;;;;;;5042593;28;20051;-82
2022/12/30 07:49:10;;;;;;;7.43;5.88;;;;;;;;;;5053812;28;20075;-81
2022/12/30 07:51:38;;;;;;;7.53;5.93;;;;;;;;;;5039836;28;20137;-81
2022/12/30 07:54:08;;;;;;;8.52;6.55;;;;;;;;;;5025422;28;20057;-81
2022/12/30 07:56:35;;;;;;;7.88;6.13;;;;;;;;;;5034280;28;20053;-81
2022/12/30 07:59:02;;;;;;;5.75;5.07;;;;;;;;;;5035314;28;20053;-81
2022/12/30 08:01:30;;;;;;;9.88;6.85;;;;;;;;;;5033056;28;20104;-82
2022/12/30 08:03:58;;;;;;;8.73;6.85;;;;;;;;;;5027111;28;20050;-82
2022/12/30 08:06:45;;;;;;;8.38;7.05;;;;;;;;;;5033445;28;20304;-81
2022/12/30 08:09:12;;;;;;;10.60;7.63;;;;;;;;;;5056207;28;20044;-82
2022/12/30 08:11:40;;;;;;;9.02;6.72;;;;;;;;;;5053420;28;20076;-83
2022/12/30 08:14:07;;;;;;;6.93;5.93;;;;;;;;;;5053646;28;20052;-82
2022/12/30 08:16:34;;;;;;;8.40;6.88;;;;;;;;;;5052894;28;20048;-82
2022/12/30 08:19:02;;;;;;;8.45;6.53;;;;;;;;;;5054086;28;20049;-81
2022/12/30 08:21:29;;;;;;;8.15;7.10;;;;;;;;;;5056808;28;20056;-82
2022/12/30 08:23:56;;;;;;;10.30;7.03;;;;;;;;;;5056558;28;20040;-81
2022/12/30 08:26:24;;;;;;;9.10;6.07;;;;;;;;;;5056006;28;20159;-80
2022/12/30 08:28:52;;;;;;;6.43;5.50;;;;;;;;;;5057806;28;20187;-81
2022/12/30 08:31:20;;;;;;;9.15;5.93;;;;;;;;;;5056717;28;20148;-82
2022/12/30 08:33:48;;;;;;;9.70;5.53;;;;;;;;;;5055903;28;20084;-83
2022/12/30 08:36:17;;;;;;;8.20;6.00;;;;;;;;;;5057283;28;20061;-82
2022/12/30 08:38:45;;;;;;;8.80;6.60;;;;;;;;;;5055296;28;20065;-81
2022/12/30 08:41:12;;;;;;;9.32;5.68;;;;;;;;;;5054794;28;20049;-82
2022/12/30 08:43:40;;;;;;;8.63;5.80;;;;;;;;;;5054797;28;20064;-84
2022/12/30 08:46:07;;;;;;;8.98;6.13;;;;;;;;;;5055467;28;20469;-82
2022/12/30 08:48:34;;;;;;;7.53;5.90;;;;;;;;;;5037894;28;20081;-81
2022/12/30 08:51:02;;;;;;;13.35;6.88;;;;;;;;;;5054880;28;20048;-83
2022/12/30 08:53:29;;;;;;;8.15;6.60;;;;;;;;;;5055651;28;20095;-81
2022/12/30 08:56:16;;;;;;;6.60;5.80;;;;;;;;;;5055034;28;20076;-82
2022/12/30 08:58:43;;;;;;;9.23;6.75;;;;;;;;;;5054893;28;20118;-83
2022/12/30 09:01:12;;;;;;;10.18;7.15;;;;;;;;;;5050928;28;20500;-83
2022/12/30 09:03:41;;;;;;;9.95;6.47;;;;;;;;;;5051320;28;20037;-80
2022/12/30 09:06:09;;;;;;;7.55;5.65;;;;;;;;;;5053704;28;20398;-83
2022/12/30 09:08:37;;;;;;;11.55;6.55;;;;;;;;;;5054497;28;20048;-83
2022/12/30 09:11:06;;;;;;;9.60;7.15;;;;;;;;;;5054672;28;20135;-81
2022/12/30 09:13:36;;;;;;;9.27;7.03;;;;;;;;;;5056210;28;20045;-82
2022/12/30 09:16:04;;;;;;;8.75;5.90;;;;;;;;;;5055019;28;20108;-81
2022/12/30 09:18:31;;;;;;;7.40;6.40;;;;;;;;;;5060811;28;20071;-83
2022/12/30 09:20:58;;;;;;;9.35;6.25;;;;;;;;;;5074998;28;20152;-83
2022/12/30 09:23:26;;;;;;;9.15;6.63;;;;;;;;;;5074636;28;20041;-80
2022/12/30 09:25:53;;;;;;;8.23;6.43;;;;;;;;;;5075601;28;20072;-82
2022/12/30 09:28:20;;;;;;;8.45;6.80;;;;;;;;;;5071893;28;20056;-82
2022/12/30 09:30:48;;;;;;;7.70;6.95;;;;;;;;;;5070190;28;20079;-83
2022/12/30 09:33:16;;;;;;;8.40;6.72;;;;;;;;;;5060353;28;20131;-82
2022/12/30 09:35:43;;;;;;;9.98;6.70;;;;;;;;;;5054868;28;20049;-82
2022/12/30 09:38:10;;;;;;;7.28;6.50;;;;;;;;;;5055329;28;20041;-82
2022/12/30 09:40:48;;;;;;;7.00;6.30;;;;;;;;;;5056400;28;20044;-80
2022/12/30 09:43:32;;;;;;;7.03;6.30;;;;;;;;;;5056137;28;20049;-82
2022/12/30 09:46:00;;;;;;;9.98;6.68;;;;;;;;;;5055635;28;20135;-82
2022/12/30 09:48:28;;;;;;;7.05;6.35;;;;;;;;;;5056091;28;20144;-82
2022/12/30 09:51:01;;;;;;;8.23;6.22;;;;;;;;;;5056999;28;20114;-82
2022/12/30 09:53:41;;;;;;;13.27;7.03;;;;;;;;;;5056638;28;20497;-80
2022/12/30 09:56:21;;;;;;;10.23;7.28;;;;;;;;;;5053978;28;20063;-82
2022/12/30 09:58:48;;;;;;;7.82;6.65;;;;;;;;;;5054759;28;20545;-81
2022/12/30 10:01:25;;;;;;;7.80;6.55;;;;;;;;;;5054962;28;20426;-82
2022/12/30 10:03:58;;;;;;;8.43;7.68;;;;;;;;;;5054897;28;20053;-82
2022/12/30 10:06:26;;;;;;;7.15;5.97;;;;;;;;;;5055543;22;20136;-87
2022/12/30 10:09:05;;;;;;;6.55;5.28;;;;;;;;;;5032000;28;20488;-87
2022/12/30 10:11:44;;;;;;;6.47;5.10;;;;;;;;;;5016680;28;20076;-87
2022/12/30 10:14:18;;;;;;;6.43;5.82;;;;;;;;;;5034020;28;20050;-88
2022/12/30 10:16:57;;;;;;;9.35;5.38;;;;;;;;;;5014630;28;20049;-88
2022/12/30 10:19:43;;;;;;;7.00;5.88;;;;;;;;;;5032079;28;20128;-88
2022/12/30 10:22:33;;;;;;;7.50;4.90;;;;;;;;;;5015494;28;20049;-87
2022/12/30 10:25:10;;;;;;;6.32;5.72;;;;;;;;;;5014791;28;20052;-87
2022/12/30 10:27:44;;;;;;;6.28;5.28;;;;;;;;;;5032650;28;20155;-88
2022/12/30 10:30:14;;;;;;;5.50;5.00;;;;;;;;;;5032456;28;20092;-87
2022/12/30 10:32:47;;;;;;;7.22;5.03;;;;;;;;;;5032222;28;20136;-87
2022/12/30 10:35:24;;;;;;;7.28;5.40;;;;;;;;;;5015995;28;20041;-87
2022/12/30 10:37:59;;;;;;;5.50;5.00;;;;;;;;;;5032931;28;20048;-87
2022/12/30 10:40:46;;;;;;;6.65;5.57;;;;;;;;;;5034704;28;20084;-85
2022/12/30 10:43:37;;;;;;;6.25;4.93;;;;;;;;;;5022441;28;20442;-86
2022/12/30 10:46:13;;;;;;;6.32;5.68;;;;;;;;;;5026706;28;20553;-87
2022/12/30 10:48:56;;;;;;;5.22;4.72;;;;;;;;;;4997445;28;20492;-87
2022/12/30 10:51:25;;;;;;;4.93;4.25;;;;;;;;;;4995791;28;20061;-87
2022/12/30 10:53:53;;;;;;;10.73;7.57;;;;;;;;;;4995174;28;20050;-86
2022/12/30 10:56:26;;;;;;;7.32;4.97;;;;;;;;;;5012588;28;20054;-86
2022/12/30 10:58:54;;;;;;;;;;;;;;;;;;4996116;28;20056;-87
2022/12/30 11:01:32;;;;;;;6.95;5.07;;;;;;;;;;5013124;28;19925;-88
2022/12/30 11:04:05;;;;;;;4.43;4.03;;;;;;;;;;5012133;28;20037;-88
2022/12/30 11:06:40;;;;;;;6.03;4.20;;;;;;;;;;5011906;28;20049;-87
2022/12/30 11:09:14;;;;;;;6.82;4.25;;;;;;;;;;4989067;28;20075;-88
2022/12/30 11:15:10;;;;;;;13.25;8.05;;;;;;;;;;5006621;28;20049;-87
2022/12/30 11:17:47;;;;;;;5.30;4.13;;;;;;;;;;5014517;28;20163;-87
2022/12/30 11:20:14;;;;;;;5.65;4.40;;;;;;;;;;5032686;28;20057;-88
2022/12/30 11:22:46;;;;;;;5.38;4.88;;;;;;;;;;5033725;28;20099;-87
2022/12/30 11:25:33;;;;;;;11.45;6.00;;;;;;;;;;5032789;28;20076;-87
2022/12/30 11:28:02;;;;;;;13.60;7.20;;;;;;;;;;5014365;28;20053;-87
2022/12/30 11:30:35;;;;;;;7.03;4.82;;;;;;;;;;5034986;28;20042;-88
2022/12/30 11:33:05;;;;;;;7.43;4.53;;;;;;;;;;5022223;28;20096;-87
2022/12/30 11:35:45;;;;;;;4.68;3.55;;;;;;;;;;5016610;28;20048;-87
2022/12/30 11:38:31;;;;;;;4.45;3.53;;;;;;;;;;4998834;28;20329;-88
2022/12/30 11:41:15;;;;;;;7.07;4.20;;;;;;;;;;4999667;28;20500;-86
2022/12/30 11:43:48;;;;;;;4.05;3.50;;;;;;;;;;5016718;28;20412;-87
2022/12/30 11:46:18;;;;;;;4.72;2.88;;;;;;;;;;5015810;28;20049;-85
2022/12/30 11:48:51;;;;;;;5.10;2.92;;;;;;;;;;5015635;28;20069;-88
2022/12/30 11:51:26;;;;;;;2.83;2.60;;;;;;;;;;5015823;28;20070;-88
2022/12/30 11:54:06;;;;;;;2.97;2.60;;;;;;;;;;5015329;28;20100;-87
2022/12/30 11:56:53;;;;;;;2.53;2.30;;;;;;;;;;5016195;28;20120;-88
2022/12/30 11:59:26;;;;;;;2.53;2.30;;;;;;;;;;5014716;28;20073;-88
2022/12/30 12:01:58;;;;;;;2.15;1.90;;;;;;;;;;5014631;28;20308;-88
2022/12/30 12:04:29;;;;;;;2.38;2.17;;;;;;;;;;5013514;28;20069;-87
2022/12/30 12:07:01;;;;;;;3.35;2.10;;;;;;;;;;4997215;28;20050;-89
2022/12/30 12:09:32;;;;;;;2.17;1.80;;;;;;;;;;5016379;28;20056;-85
2022/12/30 12:12:02;;;;;;;1.83;1.67;;;;;;;;;;5016869;28;20042;-88
2022/12/30 12:14:34;;;;;;;1.77;1.60;;;;;;;;;;4998487;28;20140;-87
2022/12/30 12:17:04;;;;;;;3.08;1.50;;;;;;;;;;5015760;28;20052;-87
2022/12/30 12:19:56;;;;;;;1.35;1.25;;;;;;;;;;4997981;28;20036;-88
2022/12/30 12:22:39;;;;;;;2.30;1.50;;;;;;;;;;5015379;28;20084;-88
2022/12/30 12:25:20;;;;;;;1.63;1.30;;;;;;;;;;5015892;28;20045;-89
2022/12/30 12:27:49;;;;;;;2.60;1.90;;;;;;;;;;5015018;28;20050;-88
2022/12/30 12:30:17;;;;;;;2.53;1.83;;;;;;;;;;5015209;28;20049;-88
2022/12/30 12:33:08;;;;;;;2.97;1.88;;;;;;;;;;5015909;28;20056;-88
2022/12/30 12:35:44;;;;;;;1.83;1.45;;;;;;;;;;4996994;28;20053;-88
2022/12/30 12:38:24;;;;;;;1.17;1.10;;;;;;;;;;5014345;28;20046;-88
2022/12/30 12:41:10;;;;;;;5.10;1.40;;;;;;;;;;4997853;28;20049;-88
2022/12/30 12:43:45;;;;;;;2.08;1.10;;;;;;;;;;4984439;28;20097;-86
2022/12/30 12:46:22;;;;;;;1.17;1.08;;;;;;;;;;5017648;28;20054;-88
2022/12/30 12:49:13;;;;;;;1.58;0.80;;;;;;;;;;5014912;28;20092;-86
2022/12/30 12:51:52;;;;;;;1.75;1.10;;;;;;;;;;5015258;28;20085;-88
2022/12/30 12:54:25;;;;;;;1.00;1.00;;;;;;;;;;5016405;28;20415;-88
2022/12/30 12:57:21;;;;;;;2.60;1.45;;;;;;;;;;4999736;28;20033;-88
2022/12/30 13:00:00;;;;;;;1.30;0.98;;;;;;;;;;4997839;28;20052;-88
2022/12/30 13:02:53;;;;;;;1.77;1.48;;;;;;;;;;5014578;28;20064;-88
2022/12/30 13:05:36;;;;;;;1.30;1.20;;;;;;;;;;4998694;28;20049;-87
2022/12/30 13:08:18;;;;;;;1.80;1.70;;;;;;;;;;4996807;28;20116;-88
2022/12/30 13:10:50;;;;;;;2.88;1.58;;;;;;;;;;5016675;28;20073;-88
2022/12/30 13:14:08;;;;;;;2.63;1.23;;;;;;;;;;4998601;28;20058;-88
2022/12/30 13:16:42;;;;;;;1.25;1.17;;;;;;;;;;4959683;28;20046;-88
2022/12/30 13:19:15;;;;;;;1.92;1.10;;;;;;;;;;5014000;28;20049;-88
2022/12/30 13:21:45;;;;;;;1.83;1.48;;;;;;;;;;5015071;28;20045;-87
2022/12/30 13:24:22;;;;;;;3.05;1.80;;;;;;;;;;5014414;28;20420;-88
2022/12/30 13:26:50;;;;;;;3.13;1.63;;;;;;;;;;4999676;28;20046;-88
2022/12/30 13:29:27;;;;;;;4.63;1.90;;;;;;;;;;5018267;28;20046;-88
2022/12/30 13:32:09;;;;;;;3.40;1.92;;;;;;;;;;4997938;28;20049;-87
2022/12/30 13:34:53;;;;;;;2.00;1.83;;;;;;;;;;5015364;28;20488;-88
2022/12/30 13:37:44;;;;;;;2.70;2.25;;;;;;;;;;4997719;28;20056;-88
2022/12/30 13:40:16;;;;;;;1.48;1.27;;;;;;;;;;4986544;28;20057;-87
2022/12/30 13:42:49;;;;;;;3.10;1.25;;;;;;;;;;5014542;28;20069;-88
2022/12/30 13:45:37;;;;;;;1.60;1.47;;;;;;;;;;4997325;28;20506;-87
2022/12/30 13:48:11;;;;;;;2.58;2.35;;;;;;;;;;4981416;28;20508;-87
2022/12/30 13:50:40;;;;;;;2.83;2.50;;;;;;;;;;4996883;28;20411;-88
2022/12/30 13:53:34;;;;;;;4.25;2.38;;;;;;;;;;4997803;28;20109;-88
2022/12/30 13:56:04;;;;;;;2.65;1.73;;;;;;;;;;4964303;28;20046;-88
2022/12/30 13:58:40;;;;;;;2.38;1.60;;;;;;;;;;5015716;28;20042;-87
2022/12/30 14:01:22;;;;;;;1.90;1.60;;;;;;;;;;5016970;28;20060;-88
2022/12/30 14:04:11;;;;;;;9.85;8.93;;;;;;;;;;5016340;28;20396;-88
2022/12/30 14:06:48;;;;;;;5.55;3.10;;;;;;;;;;5036799;28;20038;-85
2022/12/30 14:09:20;;;;;;;3.78;3.33;;;;;;;;;;5034358;28;20054;-85
2022/12/30 14:12:08;;;;;;;4.88;3.17;;;;;;;;;;5036884;28;20057;-85
2022/12/30 14:14:36;;;;;;;9.18;4.72;;;;;;;;;;5010552;28;20458;-87
2022/12/30 14:17:06;;;;;;;7.38;3.85;;;;;;;;;;4998471;28;20053;-87
2022/12/30 14:19:53;;;;;;;6.88;3.72;;;;;;;;;;5015328;28;20052;-88
2022/12/30 14:22:39;;;;;;;10.38;5.70;;;;;;;;;;5014308;28;20104;-88
2022/12/30 14:25:27;;;;;;;8.70;5.30;;;;;;;;;;5012770;28;20050;-87
2022/12/30 14:28:14;;;;;;;7.63;4.75;;;;;;;;;;5012513;28;20401;-88
2022/12/30 14:30:49;;;;;;;5.95;4.95;;;;;;;;;;5013226;28;20054;-88
2022/12/30 14:33:17;;;;;;;6.68;5.22;;;;;;;;;;4997938;28;20503;-87
2022/12/30 14:36:00;;;;;;;8.23;5.57;;;;;;;;;;5013743;28;20060;-88
2022/12/30 14:38:51;;;;;;;8.13;5.30;;;;;;;;;;4993436;28;20042;-85
2022/12/30 14:41:23;;;;;;;6.32;4.32;;;;;;;;;;5007103;28;20052;-88
2022/12/30 14:43:51;;;;;;;;;;;;;;;;;;5011449;28;20052;-87
2022/12/30 14:46:40;;;;;;;5.20;3.83;;;;;;;;;;4987737;28;20509;-86
2022/12/30 14:49:24;;;;;;;6.75;4.15;;;;;;;;;;5017450;28;20101;-88
2022/12/30 14:52:10;;;;;;;3.67;2.63;;;;;;;;;;5011950;28;20053;-88
2022/12/30 14:55:05;;;;;;;2.63;2.15;;;;;;;;;;5013363;28;20061;-87
2022/12/30 14:57:35;;;;;;;2.90;2.22;;;;;;;;;;5011740;28;20042;-88
2022/12/30 15:00:10;;;;;;;5.53;3.05;;;;;;;;;;5012755;28;20053;-88
2022/12/30 15:02:51;;;;;;;9.27;3.88;;;;;;;;;;5013436;28;20108;-88
2022/12/30 15:05:23;;;;;;;7.05;3.70;;;;;;;;;;4998891;28;20129;-88
2022/12/30 15:08:05;;;;;;;4.30;2.88;;;;;;;;;;5019877;28;20419;-87
2022/12/30 15:10:39;;;;;;;1.88;1.65;;;;;;;;;;4996826;28;20113;-88
2022/12/30 15:13:12;;;;;;;1.75;1.63;;;;;;;;;;4995253;28;20397;-87
2022/12/30 15:15:39;;;;;;;2.70;2.10;;;;;;;;;;5012009;28;20531;-87
2022/12/30 15:18:17;;;;;;;4.50;3.58;;;;;;;;;;4995301;28;20089;-87
2022/12/30 15:20:45;;;;;;;3.80;3.03;;;;;;;;;;5012096;28;20056;-88
2022/12/30 15:23:15;;;;;;;3.80;2.63;;;;;;;;;;5011886;28;20140;-87
2022/12/30 15:25:58;;;;;;;4.00;2.85;;;;;;;;;;5013222;28;20066;-86
2022/12/30 15:28:26;;;;;;;5.53;2.67;;;;;;;;;;5014672;28;20050;-87
2022/12/30 15:30:53;;;;;;;3.65;3.05;;;;;;;;;;5012214;28;20527;-87
2022/12/30 15:33:21;;;;;;;3.15;2.83;;;;;;;;;;5012716;28;20042;-87
2022/12/30 15:35:48;;;;;;;2.97;2.78;;;;;;;;;;5007327;28;20057;-87
2022/12/30 15:38:18;;;;;;;2.28;2.05;;;;;;;;;;5011361;28;20069;-87
2022/12/30 15:40:47;;;;;;;4.15;3.45;;;;;;;;;;4995748;28;20092;-86
2022/12/30 15:43:16;;;;;;;6.88;4.60;;;;;;;;;;5012920;28;20056;-86
2022/12/30 15:45:56;;;;;;;7.60;5.22;;;;;;;;;;5012696;28;20049;-87
2022/12/30 15:48:32;;;;;;;6.70;5.65;;;;;;;;;;4994896;28;20129;-88
2022/12/30 15:51:11;;;;;;;10.00;6.60;;;;;;;;;;5012086;28;20100;-87
2022/12/30 15:53:40;;;;;;;12.38;7.28;;;;;;;;;;4993903;28;20076;-87
2022/12/30 15:56:12;;;;;;;16.30;6.90;;;;;;;;;;5018286;28;20050;-87
2022/12/30 15:58:49;;;;;;;10.27;6.75;;;;;;;;;;4993821;28;20042;-88
2022/12/30 16:01:18;;;;;;;9.15;6.05;;;;;;;;;;5011838;28;20046;-86
2022/12/30 16:03:55;;;;;;;8.95;6.93;;;;;;;;;;4993092;28;20510;-86
2022/12/30 16:06:23;;;;;;;8.55;6.40;;;;;;;;;;5009221;28;20073;-87
2022/12/30 16:08:51;;;;;;;8.25;6.43;;;;;;;;;;5014780;28;20069;-87